sensor_id;sensor_type;location;lat;lon;timestamp;P1;durP1;ratioP1;P2;durP2;ratioP2
59024;SDS011;44806;48.008;13.666;2023-08-06T00:00:51;4.35;;;1.55;;
59024;SDS011;44806;48.008;13.666;2023-08-06T00:03:18;4.43;;;1.58;;
59024;SDS011;44806;48.008;13.666;2023-08-06T00:05:45;3.90;;;1.30;;
59024;SDS011;44806;48.008;13.666;2023-08-06T00:08:13;4.68;;;1.70;;
59024;SDS011;44806;48.008;13.666;2023-08-06T00:10:40;3.22;;;1.42;;
59024;SDS011;44806;48.008;13.666;2023-08-06T00:13:07;7.00;;;1.55;;
59024;SDS011;44806;48.008;13.666;2023-08-06T00:15:34;3.75;;;1.23;;
59024;SDS011;44806;48.008;13.666;2023-08-06T00:18:01;3.08;;;1.30;;
59024;SDS011;44806;48.008;13.666;2023-08-06T00:20:28;4.78;;;1.50;;
59024;SDS011;44806;48.008;13.666;2023-08-06T00:22:55;3.05;;;1.30;;
59024;SDS011;44806;48.008;13.666;2023-08-06T00:25:24;3.03;;;1.58;;
59024;SDS011;44806;48.008;13.666;2023-08-06T00:27:50;4.65;;;1.65;;
59024;SDS011;44806;48.008;13.666;2023-08-06T00:30:17;2.97;;;1.35;;
59024;SDS011;44806;48.008;13.666;2023-08-06T00:32:44;1.80;;;0.90;;
59024;SDS011;44806;48.008;13.666;2023-08-06T00:35:11;2.67;;;0.93;;
59024;SDS011;44806;48.008;13.666;2023-08-06T00:37:39;3.95;;;1.48;;
59024;SDS011;44806;48.008;13.666;2023-08-06T00:40:06;4.65;;;1.25;;
59024;SDS011;44806;48.008;13.666;2023-08-06T00:42:35;3.35;;;1.35;;
59024;SDS011;44806;48.008;13.666;2023-08-06T00:45:02;3.90;;;1.27;;
59024;SDS011;44806;48.008;13.666;2023-08-06T00:47:30;2.33;;;1.10;;
59024;SDS011;44806;48.008;13.666;2023-08-06T00:49:57;3.63;;;1.27;;
59024;SDS011;44806;48.008;13.666;2023-08-06T00:52:24;2.97;;;1.13;;
59024;SDS011;44806;48.008;13.666;2023-08-06T00:54:51;3.40;;;1.30;;
59024;SDS011;44806;48.008;13.666;2023-08-06T00:57:18;2.97;;;1.10;;
59024;SDS011;44806;48.008;13.666;2023-08-06T00:59:48;3.42;;;1.20;;
59024;SDS011;44806;48.008;13.666;2023-08-06T01:02:15;2.20;;;0.93;;
59024;SDS011;44806;48.008;13.666;2023-08-06T01:04:42;2.95;;;1.45;;
59024;SDS011;44806;48.008;13.666;2023-08-06T01:07:12;3.33;;;1.10;;
59024;SDS011;44806;48.008;13.666;2023-08-06T01:09:48;3.40;;;1.17;;
59024;SDS011;44806;48.008;13.666;2023-08-06T01:12:22;3.42;;;1.30;;
59024;SDS011;44806;48.008;13.666;2023-08-06T01:15:00;3.95;;;1.85;;
59024;SDS011;44806;48.008;13.666;2023-08-06T01:17:33;4.50;;;1.77;;
59024;SDS011;44806;48.008;13.666;2023-08-06T01:20:02;6.85;;;2.22;;
59024;SDS011;44806;48.008;13.666;2023-08-06T01:22:31;4.35;;;1.85;;
59024;SDS011;44806;48.008;13.666;2023-08-06T01:24:58;3.95;;;1.58;;
59024;SDS011;44806;48.008;13.666;2023-08-06T01:27:26;5.35;;;1.80;;
59024;SDS011;44806;48.008;13.666;2023-08-06T01:30:00;3.80;;;1.40;;
59024;SDS011;44806;48.008;13.666;2023-08-06T01:32:30;7.10;;;1.67;;
59024;SDS011;44806;48.008;13.666;2023-08-06T01:35:00;3.72;;;1.45;;
59024;SDS011;44806;48.008;13.666;2023-08-06T01:37:31;2.53;;;1.05;;
59024;SDS011;44806;48.008;13.666;2023-08-06T01:39:59;2.83;;;1.20;;
59024;SDS011;44806;48.008;13.666;2023-08-06T01:42:26;9.18;;;1.30;;
59024;SDS011;44806;48.008;13.666;2023-08-06T01:44:53;2.90;;;1.10;;
59024;SDS011;44806;48.008;13.666;2023-08-06T01:47:20;3.30;;;1.30;;
59024;SDS011;44806;48.008;13.666;2023-08-06T01:49:47;4.35;;;1.27;;
59024;SDS011;44806;48.008;13.666;2023-08-06T01:52:13;3.80;;;1.55;;
59024;SDS011;44806;48.008;13.666;2023-08-06T01:54:42;4.85;;;1.70;;
59024;SDS011;44806;48.008;13.666;2023-08-06T01:57:09;3.20;;;1.40;;
59024;SDS011;44806;48.008;13.666;2023-08-06T01:59:36;2.92;;;1.10;;
59024;SDS011;44806;48.008;13.666;2023-08-06T02:02:03;4.10;;;1.50;;
59024;SDS011;44806;48.008;13.666;2023-08-06T02:04:30;2.65;;;1.20;;
59024;SDS011;44806;48.008;13.666;2023-08-06T02:06:57;4.90;;;1.73;;
59024;SDS011;44806;48.008;13.666;2023-08-06T02:09:24;4.40;;;1.52;;
59024;SDS011;44806;48.008;13.666;2023-08-06T02:11:52;6.10;;;1.50;;
59024;SDS011;44806;48.008;13.666;2023-08-06T02:14:19;4.25;;;1.73;;
59024;SDS011;44806;48.008;13.666;2023-08-06T02:16:46;6.38;;;1.60;;
59024;SDS011;44806;48.008;13.666;2023-08-06T02:19:13;3.90;;;1.80;;
59024;SDS011;44806;48.008;13.666;2023-08-06T02:21:40;4.05;;;1.35;;
59024;SDS011;44806;48.008;13.666;2023-08-06T02:24:07;3.25;;;1.33;;
59024;SDS011;44806;48.008;13.666;2023-08-06T02:26:34;4.13;;;1.38;;
59024;SDS011;44806;48.008;13.666;2023-08-06T02:29:03;3.08;;;1.20;;
59024;SDS011;44806;48.008;13.666;2023-08-06T02:34:42;3.63;;;1.48;;
59024;SDS011;44806;48.008;13.666;2023-08-06T02:37:09;3.97;;;1.13;;
59024;SDS011;44806;48.008;13.666;2023-08-06T02:39:36;4.25;;;1.33;;
59024;SDS011;44806;48.008;13.666;2023-08-06T02:42:05;2.65;;;1.10;;
59024;SDS011;44806;48.008;13.666;2023-08-06T02:44:34;2.70;;;1.00;;
59024;SDS011;44806;48.008;13.666;2023-08-06T02:47:00;4.95;;;1.58;;
59024;SDS011;44806;48.008;13.666;2023-08-06T02:49:27;2.95;;;1.20;;
59024;SDS011;44806;48.008;13.666;2023-08-06T02:51:54;3.67;;;1.17;;
59024;SDS011;44806;48.008;13.666;2023-08-06T02:54:21;3.30;;;1.35;;
59024;SDS011;44806;48.008;13.666;2023-08-06T02:56:48;4.82;;;2.13;;
59024;SDS011;44806;48.008;13.666;2023-08-06T02:59:15;5.13;;;1.25;;
59024;SDS011;44806;48.008;13.666;2023-08-06T03:01:43;3.65;;;1.33;;
59024;SDS011;44806;48.008;13.666;2023-08-06T03:04:10;3.42;;;1.38;;
59024;SDS011;44806;48.008;13.666;2023-08-06T03:06:37;2.78;;;1.13;;
59024;SDS011;44806;48.008;13.666;2023-08-06T03:09:04;4.47;;;1.30;;
59024;SDS011;44806;48.008;13.666;2023-08-06T03:11:30;2.58;;;1.15;;
59024;SDS011;44806;48.008;13.666;2023-08-06T03:13:57;3.35;;;1.33;;
59024;SDS011;44806;48.008;13.666;2023-08-06T03:16:24;3.28;;;1.40;;
59024;SDS011;44806;48.008;13.666;2023-08-06T03:18:52;4.05;;;1.45;;
59024;SDS011;44806;48.008;13.666;2023-08-06T03:21:19;3.47;;;1.23;;
59024;SDS011;44806;48.008;13.666;2023-08-06T03:23:46;3.83;;;1.65;;
59024;SDS011;44806;48.008;13.666;2023-08-06T03:26:13;3.63;;;1.42;;
59024;SDS011;44806;48.008;13.666;2023-08-06T03:28:40;4.22;;;1.45;;
59024;SDS011;44806;48.008;13.666;2023-08-06T03:31:07;3.10;;;1.00;;
59024;SDS011;44806;48.008;13.666;2023-08-06T03:33:34;3.67;;;1.25;;
59024;SDS011;44806;48.008;13.666;2023-08-06T03:36:03;3.28;;;1.23;;
59024;SDS011;44806;48.008;13.666;2023-08-06T03:38:30;3.83;;;1.50;;
59024;SDS011;44806;48.008;13.666;2023-08-06T03:40:57;4.13;;;1.40;;
59024;SDS011;44806;48.008;13.666;2023-08-06T03:43:24;3.75;;;1.40;;
59024;SDS011;44806;48.008;13.666;2023-08-06T03:45:51;2.25;;;0.90;;
59024;SDS011;44806;48.008;13.666;2023-08-06T03:48:18;3.50;;;1.30;;
59024;SDS011;44806;48.008;13.666;2023-08-06T03:50:45;3.22;;;1.27;;
59024;SDS011;44806;48.008;13.666;2023-08-06T03:53:13;2.88;;;1.10;;
59024;SDS011;44806;48.008;13.666;2023-08-06T03:55:40;2.90;;;1.05;;
59024;SDS011;44806;48.008;13.666;2023-08-06T03:58:07;1.88;;;0.80;;
59024;SDS011;44806;48.008;13.666;2023-08-06T04:00:34;3.00;;;1.15;;
59024;SDS011;44806;48.008;13.666;2023-08-06T04:03:01;3.95;;;1.20;;
59024;SDS011;44806;48.008;13.666;2023-08-06T04:05:30;2.95;;;0.93;;
59024;SDS011;44806;48.008;13.666;2023-08-06T04:07:57;3.83;;;1.05;;
59024;SDS011;44806;48.008;13.666;2023-08-06T04:10:27;2.53;;;0.95;;
59024;SDS011;44806;48.008;13.666;2023-08-06T04:12:53;2.65;;;0.98;;
59024;SDS011;44806;48.008;13.666;2023-08-06T04:15:20;2.50;;;1.00;;
59024;SDS011;44806;48.008;13.666;2023-08-06T04:17:47;2.72;;;0.90;;
59024;SDS011;44806;48.008;13.666;2023-08-06T04:20:14;3.92;;;1.63;;
59024;SDS011;44806;48.008;13.666;2023-08-06T04:22:41;3.17;;;1.00;;
59024;SDS011;44806;48.008;13.666;2023-08-06T04:25:08;3.55;;;1.10;;
59024;SDS011;44806;48.008;13.666;2023-08-06T04:27:37;2.50;;;0.93;;
59024;SDS011;44806;48.008;13.666;2023-08-06T04:30:07;2.42;;;1.20;;
59024;SDS011;44806;48.008;13.666;2023-08-06T04:32:36;1.85;;;0.80;;
59024;SDS011;44806;48.008;13.666;2023-08-06T04:35:04;2.67;;;0.90;;
59024;SDS011;44806;48.008;13.666;2023-08-06T04:37:31;3.00;;;1.13;;
59024;SDS011;44806;48.008;13.666;2023-08-06T04:39:58;5.40;;;1.70;;
59024;SDS011;44806;48.008;13.666;2023-08-06T04:42:25;3.78;;;1.50;;
59024;SDS011;44806;48.008;13.666;2023-08-06T04:44:53;4.38;;;1.60;;
59024;SDS011;44806;48.008;13.666;2023-08-06T04:47:20;3.67;;;1.23;;
59024;SDS011;44806;48.008;13.666;2023-08-06T04:49:47;5.07;;;1.73;;
59024;SDS011;44806;48.008;13.666;2023-08-06T04:52:13;4.10;;;1.48;;
59024;SDS011;44806;48.008;13.666;2023-08-06T04:54:40;3.97;;;1.35;;
59024;SDS011;44806;48.008;13.666;2023-08-06T04:57:07;4.80;;;1.35;;
59024;SDS011;44806;48.008;13.666;2023-08-06T04:59:35;3.97;;;1.30;;
59024;SDS011;44806;48.008;13.666;2023-08-06T05:02:03;4.15;;;1.90;;
59024;SDS011;44806;48.008;13.666;2023-08-06T05:04:30;4.43;;;1.48;;
59024;SDS011;44806;48.008;13.666;2023-08-06T05:06:58;5.03;;;1.60;;
59024;SDS011;44806;48.008;13.666;2023-08-06T05:09:25;4.50;;;1.83;;
59024;SDS011;44806;48.008;13.666;2023-08-06T05:11:52;6.57;;;1.98;;
59024;SDS011;44806;48.008;13.666;2023-08-06T05:14:19;4.40;;;1.58;;
59024;SDS011;44806;48.008;13.666;2023-08-06T05:16:46;3.47;;;1.30;;
59024;SDS011;44806;48.008;13.666;2023-08-06T05:19:14;4.55;;;1.67;;
59024;SDS011;44806;48.008;13.666;2023-08-06T05:21:41;4.75;;;1.70;;
59024;SDS011;44806;48.008;13.666;2023-08-06T05:24:08;4.80;;;1.65;;
59024;SDS011;44806;48.008;13.666;2023-08-06T05:26:35;5.20;;;2.33;;
59024;SDS011;44806;48.008;13.666;2023-08-06T05:29:02;7.00;;;2.13;;
59024;SDS011;44806;48.008;13.666;2023-08-06T05:31:29;4.95;;;1.88;;
59024;SDS011;44806;48.008;13.666;2023-08-06T05:33:56;5.57;;;2.35;;
59024;SDS011;44806;48.008;13.666;2023-08-06T05:36:25;4.32;;;1.70;;
59024;SDS011;44806;48.008;13.666;2023-08-06T05:38:52;4.20;;;1.55;;
59024;SDS011;44806;48.008;13.666;2023-08-06T05:41:19;4.57;;;1.60;;
59024;SDS011;44806;48.008;13.666;2023-08-06T05:43:45;3.85;;;1.55;;
59024;SDS011;44806;48.008;13.666;2023-08-06T05:46:12;4.60;;;1.80;;
59024;SDS011;44806;48.008;13.666;2023-08-06T05:48:39;5.80;;;1.90;;
59024;SDS011;44806;48.008;13.666;2023-08-06T05:51:06;5.05;;;1.75;;
59024;SDS011;44806;48.008;13.666;2023-08-06T05:53:34;5.22;;;1.85;;
59024;SDS011;44806;48.008;13.666;2023-08-06T05:56:01;5.47;;;2.17;;
59024;SDS011;44806;48.008;13.666;2023-08-06T05:58:28;5.80;;;1.77;;
59024;SDS011;44806;48.008;13.666;2023-08-06T06:00:55;5.32;;;2.58;;
59024;SDS011;44806;48.008;13.666;2023-08-06T06:03:22;4.38;;;1.73;;
59024;SDS011;44806;48.008;13.666;2023-08-06T06:05:49;4.32;;;1.80;;
59024;SDS011;44806;48.008;13.666;2023-08-06T06:08:16;3.85;;;1.42;;
59024;SDS011;44806;48.008;13.666;2023-08-06T06:10:44;3.63;;;1.52;;
59024;SDS011;44806;48.008;13.666;2023-08-06T06:13:11;5.53;;;1.98;;
59024;SDS011;44806;48.008;13.666;2023-08-06T06:15:38;4.30;;;1.73;;
59024;SDS011;44806;48.008;13.666;2023-08-06T06:18:05;4.13;;;1.73;;
59024;SDS011;44806;48.008;13.666;2023-08-06T06:20:32;5.97;;;2.20;;
59024;SDS011;44806;48.008;13.666;2023-08-06T06:22:59;4.80;;;1.52;;
59024;SDS011;44806;48.008;13.666;2023-08-06T06:25:26;5.03;;;2.00;;
59024;SDS011;44806;48.008;13.666;2023-08-06T06:27:54;3.97;;;1.65;;
59024;SDS011;44806;48.008;13.666;2023-08-06T06:30:21;3.03;;;1.20;;
59024;SDS011;44806;48.008;13.666;2023-08-06T06:32:48;4.45;;;1.42;;
59024;SDS011;44806;48.008;13.666;2023-08-06T06:35:14;8.55;;;2.40;;
59024;SDS011;44806;48.008;13.666;2023-08-06T06:37:41;4.28;;;1.75;;
59024;SDS011;44806;48.008;13.666;2023-08-06T06:40:09;3.58;;;1.30;;
59024;SDS011;44806;48.008;13.666;2023-08-06T06:42:36;4.35;;;1.90;;
59024;SDS011;44806;48.008;13.666;2023-08-06T06:45:05;4.93;;;1.77;;
59024;SDS011;44806;48.008;13.666;2023-08-06T06:47:33;5.40;;;1.95;;
59024;SDS011;44806;48.008;13.666;2023-08-06T06:50:00;4.50;;;1.70;;
59024;SDS011;44806;48.008;13.666;2023-08-06T06:52:27;5.35;;;1.83;;
59024;SDS011;44806;48.008;13.666;2023-08-06T06:54:54;5.20;;;1.80;;
59024;SDS011;44806;48.008;13.666;2023-08-06T06:57:21;5.05;;;1.63;;
59024;SDS011;44806;48.008;13.666;2023-08-06T06:59:48;4.65;;;1.83;;
59024;SDS011;44806;48.008;13.666;2023-08-06T07:02:16;4.68;;;1.95;;
59024;SDS011;44806;48.008;13.666;2023-08-06T07:04:43;3.65;;;1.48;;
59024;SDS011;44806;48.008;13.666;2023-08-06T07:07:10;3.55;;;1.65;;
59024;SDS011;44806;48.008;13.666;2023-08-06T07:09:37;4.72;;;1.80;;
59024;SDS011;44806;48.008;13.666;2023-08-06T07:12:04;3.65;;;1.27;;
59024;SDS011;44806;48.008;13.666;2023-08-06T07:14:31;6.03;;;3.03;;
59024;SDS011;44806;48.008;13.666;2023-08-06T07:16:58;4.47;;;1.90;;
59024;SDS011;44806;48.008;13.666;2023-08-06T07:19:26;5.80;;;1.65;;
59024;SDS011;44806;48.008;13.666;2023-08-06T07:21:53;5.10;;;1.20;;
59024;SDS011;44806;48.008;13.666;2023-08-06T07:24:21;3.47;;;1.10;;
59024;SDS011;44806;48.008;13.666;2023-08-06T07:26:47;3.15;;;1.23;;
59024;SDS011;44806;48.008;13.666;2023-08-06T07:29:14;2.70;;;0.90;;
59024;SDS011;44806;48.008;13.666;2023-08-06T07:31:44;3.85;;;1.50;;
59024;SDS011;44806;48.008;13.666;2023-08-06T07:34:11;3.63;;;1.40;;
59024;SDS011;44806;48.008;13.666;2023-08-06T07:36:40;3.40;;;1.38;;
59024;SDS011;44806;48.008;13.666;2023-08-06T07:39:09;2.70;;;1.33;;
59024;SDS011;44806;48.008;13.666;2023-08-06T07:41:36;3.40;;;1.40;;
59024;SDS011;44806;48.008;13.666;2023-08-06T07:44:03;4.43;;;1.40;;
59024;SDS011;44806;48.008;13.666;2023-08-06T07:46:30;3.95;;;1.17;;
59024;SDS011;44806;48.008;13.666;2023-08-06T07:48:58;4.13;;;1.38;;
59024;SDS011;44806;48.008;13.666;2023-08-06T07:51:24;4.28;;;1.48;;
59024;SDS011;44806;48.008;13.666;2023-08-06T07:53:53;3.50;;;1.20;;
59024;SDS011;44806;48.008;13.666;2023-08-06T07:56:20;4.50;;;1.60;;
59024;SDS011;44806;48.008;13.666;2023-08-06T07:58:46;3.90;;;1.63;;
59024;SDS011;44806;48.008;13.666;2023-08-06T08:01:13;4.90;;;1.60;;
59024;SDS011;44806;48.008;13.666;2023-08-06T08:03:40;3.72;;;1.60;;
59024;SDS011;44806;48.008;13.666;2023-08-06T08:06:07;5.75;;;1.70;;
59024;SDS011;44806;48.008;13.666;2023-08-06T08:08:34;3.95;;;1.60;;
59024;SDS011;44806;48.008;13.666;2023-08-06T08:11:05;4.50;;;1.92;;
59024;SDS011;44806;48.008;13.666;2023-08-06T08:13:32;3.65;;;1.40;;
59024;SDS011;44806;48.008;13.666;2023-08-06T08:16:00;5.03;;;1.77;;
59024;SDS011;44806;48.008;13.666;2023-08-06T08:18:27;4.38;;;1.48;;
59024;SDS011;44806;48.008;13.666;2023-08-06T08:20:56;4.30;;;1.77;;
59024;SDS011;44806;48.008;13.666;2023-08-06T08:23:23;3.05;;;1.30;;
59024;SDS011;44806;48.008;13.666;2023-08-06T08:25:50;3.88;;;1.50;;
59024;SDS011;44806;48.008;13.666;2023-08-06T08:28:18;3.20;;;1.25;;
59024;SDS011;44806;48.008;13.666;2023-08-06T08:30:45;3.03;;;1.25;;
59024;SDS011;44806;48.008;13.666;2023-08-06T08:33:12;3.28;;;1.17;;
59024;SDS011;44806;48.008;13.666;2023-08-06T08:35:40;3.20;;;0.95;;
59024;SDS011;44806;48.008;13.666;2023-08-06T08:38:06;3.17;;;0.88;;
59024;SDS011;44806;48.008;13.666;2023-08-06T08:40:33;4.03;;;1.05;;
59024;SDS011;44806;48.008;13.666;2023-08-06T08:43:08;3.55;;;1.30;;
59024;SDS011;44806;48.008;13.666;2023-08-06T08:45:37;3.38;;;0.98;;
59024;SDS011;44806;48.008;13.666;2023-08-06T08:48:06;2.25;;;0.88;;
59024;SDS011;44806;48.008;13.666;2023-08-06T08:50:33;2.72;;;1.00;;
59024;SDS011;44806;48.008;13.666;2023-08-06T08:53:00;2.63;;;1.23;;
59024;SDS011;44806;48.008;13.666;2023-08-06T08:55:27;2.08;;;0.75;;
59024;SDS011;44806;48.008;13.666;2023-08-06T08:57:54;2.75;;;1.02;;
59024;SDS011;44806;48.008;13.666;2023-08-06T09:00:21;1.50;;;0.65;;
59024;SDS011;44806;48.008;13.666;2023-08-06T09:02:50;4.10;;;1.05;;
59024;SDS011;44806;48.008;13.666;2023-08-06T09:05:17;1.67;;;0.70;;
59024;SDS011;44806;48.008;13.666;2023-08-06T09:07:47;7.18;;;1.20;;
59024;SDS011;44806;48.008;13.666;2023-08-06T09:10:16;3.00;;;1.35;;
59024;SDS011;44806;48.008;13.666;2023-08-06T09:12:44;3.45;;;0.80;;
59024;SDS011;44806;48.008;13.666;2023-08-06T09:15:11;3.05;;;1.02;;
59024;SDS011;44806;48.008;13.666;2023-08-06T09:17:38;2.45;;;0.98;;
59024;SDS011;44806;48.008;13.666;2023-08-06T09:20:11;2.83;;;0.98;;
59024;SDS011;44806;48.008;13.666;2023-08-06T09:22:39;2.95;;;1.10;;
59024;SDS011;44806;48.008;13.666;2023-08-06T09:25:06;3.65;;;1.15;;
59024;SDS011;44806;48.008;13.666;2023-08-06T09:27:35;3.17;;;1.10;;
59024;SDS011;44806;48.008;13.666;2023-08-06T09:30:03;3.17;;;1.08;;
59024;SDS011;44806;48.008;13.666;2023-08-06T09:32:44;2.92;;;1.00;;
59024;SDS011;44806;48.008;13.666;2023-08-06T09:35:16;3.03;;;1.17;;
59024;SDS011;44806;48.008;13.666;2023-08-06T09:37:43;3.35;;;1.05;;
59024;SDS011;44806;48.008;13.666;2023-08-06T09:40:24;2.85;;;0.80;;
59024;SDS011;44806;48.008;13.666;2023-08-06T09:42:52;3.78;;;1.10;;
59024;SDS011;44806;48.008;13.666;2023-08-06T09:45:19;2.78;;;1.33;;
59024;SDS011;44806;48.008;13.666;2023-08-06T09:47:47;2.85;;;1.00;;
59024;SDS011;44806;48.008;13.666;2023-08-06T09:50:17;1.63;;;0.73;;
59024;SDS011;44806;48.008;13.666;2023-08-06T09:52:44;2.80;;;0.70;;
59024;SDS011;44806;48.008;13.666;2023-08-06T09:55:11;1.65;;;0.60;;
59024;SDS011;44806;48.008;13.666;2023-08-06T09:57:39;2.53;;;0.95;;
59024;SDS011;44806;48.008;13.666;2023-08-06T10:00:07;2.97;;;0.80;;
59024;SDS011;44806;48.008;13.666;2023-08-06T10:02:35;2.88;;;0.68;;
59024;SDS011;44806;48.008;13.666;2023-08-06T10:05:04;2.40;;;0.57;;
59024;SDS011;44806;48.008;13.666;2023-08-06T10:07:33;3.65;;;0.80;;
59024;SDS011;44806;48.008;13.666;2023-08-06T10:10:00;1.25;;;0.60;;
59024;SDS011;44806;48.008;13.666;2023-08-06T10:12:28;3.88;;;0.77;;
59024;SDS011;44806;48.008;13.666;2023-08-06T10:14:59;2.75;;;0.40;;
59024;SDS011;44806;48.008;13.666;2023-08-06T10:17:29;6.05;;;0.60;;
59024;SDS011;44806;48.008;13.666;2023-08-06T10:19:59;2.42;;;0.82;;
59024;SDS011;44806;48.008;13.666;2023-08-06T10:22:26;2.55;;;0.45;;
59024;SDS011;44806;48.008;13.666;2023-08-06T10:24:55;1.10;;;0.40;;
59024;SDS011;44806;48.008;13.666;2023-08-06T10:27:27;1.02;;;0.30;;
59024;SDS011;44806;48.008;13.666;2023-08-06T10:29:55;2.50;;;0.55;;
59024;SDS011;44806;48.008;13.666;2023-08-06T10:32:31;1.13;;;0.32;;
59024;SDS011;44806;48.008;13.666;2023-08-06T10:35:27;0.90;;;0.38;;
59024;SDS011;44806;48.008;13.666;2023-08-06T10:37:57;1.17;;;0.50;;
59024;SDS011;44806;48.008;13.666;2023-08-06T10:40:26;1.40;;;0.40;;
59024;SDS011;44806;48.008;13.666;2023-08-06T10:42:55;1.80;;;0.40;;
59024;SDS011;44806;48.008;13.666;2023-08-06T10:45:22;0.98;;;0.40;;
59024;SDS011;44806;48.008;13.666;2023-08-06T10:47:53;1.80;;;0.40;;
59024;SDS011;44806;48.008;13.666;2023-08-06T10:50:21;1.80;;;0.52;;
59024;SDS011;44806;48.008;13.666;2023-08-06T10:52:48;1.88;;;0.60;;
59024;SDS011;44806;48.008;13.666;2023-08-06T10:55:22;1.30;;;0.40;;
59024;SDS011;44806;48.008;13.666;2023-08-06T10:57:51;2.10;;;0.40;;
59024;SDS011;44806;48.008;13.666;2023-08-06T11:00:20;1.35;;;0.40;;
59024;SDS011;44806;48.008;13.666;2023-08-06T11:02:48;1.88;;;0.50;;
59024;SDS011;44806;48.008;13.666;2023-08-06T11:05:15;0.85;;;0.30;;
59024;SDS011;44806;48.008;13.666;2023-08-06T11:07:42;2.47;;;0.85;;
59024;SDS011;44806;48.008;13.666;2023-08-06T11:10:10;1.40;;;0.40;;
59024;SDS011;44806;48.008;13.666;2023-08-06T11:12:38;3.85;;;0.40;;
59024;SDS011;44806;48.008;13.666;2023-08-06T11:15:07;2.20;;;0.43;;
59024;SDS011;44806;48.008;13.666;2023-08-06T11:17:35;2.55;;;0.50;;
59024;SDS011;44806;48.008;13.666;2023-08-06T11:20:03;0.88;;;0.30;;
59024;SDS011;44806;48.008;13.666;2023-08-06T11:22:31;1.13;;;0.32;;
59024;SDS011;44806;48.008;13.666;2023-08-06T11:24:58;1.23;;;0.40;;
59024;SDS011;44806;48.008;13.666;2023-08-06T11:27:26;0.25;;;0.20;;
59024;SDS011;44806;48.008;13.666;2023-08-06T11:29:54;0.77;;;0.20;;
59024;SDS011;44806;48.008;13.666;2023-08-06T11:32:22;3.53;;;0.40;;
59024;SDS011;44806;48.008;13.666;2023-08-06T11:34:49;1.65;;;0.30;;
59024;SDS011;44806;48.008;13.666;2023-08-06T11:37:16;1.80;;;0.40;;
59024;SDS011;44806;48.008;13.666;2023-08-06T11:39:48;0.60;;;0.20;;
59024;SDS011;44806;48.008;13.666;2023-08-06T11:42:16;0.95;;;0.20;;
59024;SDS011;44806;48.008;13.666;2023-08-06T11:44:43;0.90;;;0.52;;
59024;SDS011;44806;48.008;13.666;2023-08-06T11:47:12;0.45;;;0.20;;
59024;SDS011;44806;48.008;13.666;2023-08-06T11:49:42;1.33;;;0.30;;
59024;SDS011;44806;48.008;13.666;2023-08-06T11:52:14;0.63;;;0.22;;
59024;SDS011;44806;48.008;13.666;2023-08-06T11:54:44;1.67;;;0.13;;
59024;SDS011;44806;48.008;13.666;2023-08-06T11:57:11;0.43;;;0.10;;
59024;SDS011;44806;48.008;13.666;2023-08-06T11:59:38;1.50;;;0.20;;
59024;SDS011;44806;48.008;13.666;2023-08-06T12:02:07;0.20;;;0.10;;
59024;SDS011;44806;48.008;13.666;2023-08-06T12:07:32;3.13;;;0.15;;
59024;SDS011;44806;48.008;13.666;2023-08-06T12:10:03;0.38;;;0.20;;
59024;SDS011;44806;48.008;13.666;2023-08-06T12:12:31;0.30;;;0.10;;
59024;SDS011;44806;48.008;13.666;2023-08-06T12:14:57;1.48;;;0.25;;
59024;SDS011;44806;48.008;13.666;2023-08-06T12:17:24;0.93;;;0.30;;
59024;SDS011;44806;48.008;13.666;2023-08-06T12:19:52;0.55;;;0.22;;
59024;SDS011;44806;48.008;13.666;2023-08-06T12:22:20;1.40;;;0.25;;
59024;SDS011;44806;48.008;13.666;2023-08-06T12:24:47;1.50;;;0.25;;
59024;SDS011;44806;48.008;13.666;2023-08-06T12:27:14;0.63;;;0.20;;
59024;SDS011;44806;48.008;13.666;2023-08-06T12:29:41;1.02;;;0.20;;
59024;SDS011;44806;48.008;13.666;2023-08-06T12:32:09;0.50;;;0.10;;
59024;SDS011;44806;48.008;13.666;2023-08-06T12:34:37;0.45;;;0.20;;
59024;SDS011;44806;48.008;13.666;2023-08-06T12:37:04;1.20;;;0.10;;
59024;SDS011;44806;48.008;13.666;2023-08-06T12:39:33;0.85;;;0.10;;
59024;SDS011;44806;48.008;13.666;2023-08-06T12:42:00;1.08;;;0.30;;
59024;SDS011;44806;48.008;13.666;2023-08-06T12:44:27;1.08;;;0.10;;
59024;SDS011;44806;48.008;13.666;2023-08-06T12:46:54;0.80;;;0.10;;
59024;SDS011;44806;48.008;13.666;2023-08-06T12:49:21;0.57;;;0.20;;
59024;SDS011;44806;48.008;13.666;2023-08-06T12:51:49;1.30;;;0.30;;
59024;SDS011;44806;48.008;13.666;2023-08-06T12:54:17;4.53;;;0.20;;
59024;SDS011;44806;48.008;13.666;2023-08-06T12:56:46;0.30;;;0.00;;
59024;SDS011;44806;48.008;13.666;2023-08-06T12:59:14;0.32;;;0.20;;
59024;SDS011;44806;48.008;13.666;2023-08-06T13:01:41;0.88;;;0.52;;
59024;SDS011;44806;48.008;13.666;2023-08-06T13:04:08;0.28;;;0.15;;
59024;SDS011;44806;48.008;13.666;2023-08-06T13:06:36;1.33;;;0.20;;
59024;SDS011;44806;48.008;13.666;2023-08-06T13:09:04;0.73;;;0.20;;
59024;SDS011;44806;48.008;13.666;2023-08-06T13:11:33;0.98;;;0.13;;
59024;SDS011;44806;48.008;13.666;2023-08-06T13:14:05;0.40;;;0.10;;
59024;SDS011;44806;48.008;13.666;2023-08-06T13:16:33;0.63;;;0.13;;
59024;SDS011;44806;48.008;13.666;2023-08-06T13:19:01;3.50;;;0.28;;
59024;SDS011;44806;48.008;13.666;2023-08-06T13:21:30;1.35;;;0.30;;
59024;SDS011;44806;48.008;13.666;2023-08-06T13:23:58;0.93;;;0.20;;
59024;SDS011;44806;48.008;13.666;2023-08-06T13:26:25;0.30;;;0.17;;
59024;SDS011;44806;48.008;13.666;2023-08-06T13:28:53;0.43;;;0.00;;
59024;SDS011;44806;48.008;13.666;2023-08-06T13:31:22;0.00;;;0.00;;
59024;SDS011;44806;48.008;13.666;2023-08-06T13:33:48;2.10;;;0.10;;
59024;SDS011;44806;48.008;13.666;2023-08-06T13:36:15;3.33;;;0.30;;
59024;SDS011;44806;48.008;13.666;2023-08-06T13:38:42;0.63;;;0.10;;
59024;SDS011;44806;48.008;13.666;2023-08-06T13:41:09;1.08;;;0.20;;
59024;SDS011;44806;48.008;13.666;2023-08-06T13:43:36;0.65;;;0.10;;
59024;SDS011;44806;48.008;13.666;2023-08-06T13:46:03;0.55;;;0.20;;
59024;SDS011;44806;48.008;13.666;2023-08-06T13:48:32;0.65;;;0.20;;
59024;SDS011;44806;48.008;13.666;2023-08-06T13:51:00;0.90;;;0.00;;
59024;SDS011;44806;48.008;13.666;2023-08-06T13:53:27;1.35;;;0.20;;
59024;SDS011;44806;48.008;13.666;2023-08-06T13:55:55;0.10;;;0.08;;
59024;SDS011;44806;48.008;13.666;2023-08-06T13:58:22;0.55;;;0.00;;
59024;SDS011;44806;48.008;13.666;2023-08-06T14:00:50;2.65;;;0.10;;
59024;SDS011;44806;48.008;13.666;2023-08-06T14:03:19;0.60;;;0.10;;
59024;SDS011;44806;48.008;13.666;2023-08-06T14:05:47;0.32;;;0.10;;
59024;SDS011;44806;48.008;13.666;2023-08-06T14:08:14;0.47;;;0.10;;
59024;SDS011;44806;48.008;13.666;2023-08-06T14:10:43;0.60;;;0.08;;
59024;SDS011;44806;48.008;13.666;2023-08-06T14:13:10;0.20;;;0.10;;
59024;SDS011;44806;48.008;13.666;2023-08-06T14:15:37;6.45;;;0.20;;
59024;SDS011;44806;48.008;13.666;2023-08-06T14:18:05;0.15;;;0.00;;
59024;SDS011;44806;48.008;13.666;2023-08-06T14:20:33;1.85;;;0.05;;
59024;SDS011;44806;48.008;13.666;2023-08-06T14:23:01;0.08;;;0.00;;
59024;SDS011;44806;48.008;13.666;2023-08-06T14:25:28;0.88;;;0.08;;
59024;SDS011;44806;48.008;13.666;2023-08-06T14:27:55;0.93;;;0.10;;
59024;SDS011;44806;48.008;13.666;2023-08-06T14:30:22;0.35;;;0.10;;
59024;SDS011;44806;48.008;13.666;2023-08-06T14:32:49;0.40;;;0.10;;
59024;SDS011;44806;48.008;13.666;2023-08-06T14:35:16;1.25;;;0.10;;
59024;SDS011;44806;48.008;13.666;2023-08-06T14:37:43;0.05;;;0.05;;
59024;SDS011;44806;48.008;13.666;2023-08-06T14:40:13;0.45;;;0.10;;
59024;SDS011;44806;48.008;13.666;2023-08-06T14:42:40;0.00;;;0.00;;